Time;durP1;ratioP1;P1;durP2;ratioP2;P2;SDS_P1;SDS_P2;PMS_P1;PMS_P2;Temp;Humidity;BMP_temperature;BMP_pressure;BME280_temperature;BME280_humidity;BME280_pressure;Samples;Min_cycle;Max_cycle;Signal;HPM_P1;HPM_P2
2023/08/20 00:02:15;;;;;;;0.30;0.30;;;16.90;99.90;;;;;;5035105;28;20344;-74
2023/08/20 00:04:42;;;;;;;0.38;0.38;;;16.90;99.90;;;;;;5034904;28;20064;-74
2023/08/20 00:07:08;;;;;;;0.32;0.32;;;16.90;99.90;;;;;;5035017;28;20037;-74
2023/08/20 00:09:34;;;;;;;0.30;0.30;;;16.80;99.90;;;;;;5035228;28;20528;-73
2023/08/20 00:11:59;;;;;;;0.47;0.47;;;16.80;99.90;;;;;;5034898;28;20042;-73
2023/08/20 00:14:58;;;;;;;0.30;0.30;;;16.80;99.90;;;;;;5034752;28;20033;-73
2023/08/20 00:17:26;;;;;;;0.30;0.30;;;16.80;99.90;;;;;;5035269;28;20089;-73
2023/08/20 00:19:54;;;;;;;0.20;0.20;;;16.70;99.90;;;;;;5035296;28;20053;-73
2023/08/20 00:22:22;;;;;;;0.32;0.32;;;16.70;99.90;;;;;;5034695;28;20087;-73
2023/08/20 00:24:48;;;;;;;0.30;0.30;;;16.70;99.90;;;;;;5034645;28;20124;-73
2023/08/20 00:27:14;;;;;;;0.30;0.30;;;16.70;99.90;;;;;;5034552;28;20172;-74
2023/08/20 00:29:39;;;;;;;2.17;0.63;;;16.70;99.90;;;;;;5034207;28;20120;-73
2023/08/20 00:32:05;;;;;;;0.33;0.33;;;16.70;99.90;;;;;;5034910;28;20072;-73
2023/08/20 00:34:30;;;;;;;0.30;0.30;;;16.60;99.90;;;;;;5050288;28;20037;-73
2023/08/20 00:36:56;;;;;;;0.30;0.30;;;16.60;99.90;;;;;;5034017;28;20477;-73
2023/08/20 00:39:22;;;;;;;0.50;0.50;;;16.60;99.90;;;;;;5034804;28;20033;-73
2023/08/20 00:41:47;;;;;;;0.30;0.30;;;16.60;99.90;;;;;;5034196;28;20033;-73
2023/08/20 00:44:13;;;;;;;0.30;0.30;;;16.60;99.90;;;;;;5034219;28;20178;-73
2023/08/20 00:46:39;;;;;;;0.38;0.38;;;16.60;99.90;;;;;;5033962;28;20428;-73
2023/08/20 00:49:06;;;;;;;0.30;0.30;;;16.50;99.90;;;;;;5034028;28;20147;-74
2023/08/20 00:51:33;;;;;;;0.30;0.30;;;16.60;99.90;;;;;;5034121;28;20041;-73
2023/08/20 00:54:01;;;;;;;0.47;0.47;;;16.50;99.90;;;;;;5034119;28;20047;-73
2023/08/20 00:56:27;;;;;;;0.40;0.30;;;16.50;99.90;;;;;;5034062;28;20060;-74
2023/08/20 00:58:54;;;;;;;0.30;0.30;;;16.50;99.90;;;;;;5034057;28;20153;-73
2023/08/20 01:01:20;;;;;;;0.30;0.30;;;16.40;99.90;;;;;;5034019;28;20085;-74
2023/08/20 01:03:46;;;;;;;1.35;0.73;;;16.40;99.90;;;;;;5033909;28;20091;-73
2023/08/20 01:06:39;;;;;;;0.83;0.83;;;16.40;99.90;;;;;;5033854;28;20421;-73
2023/08/20 01:09:30;;;;;;;0.30;0.30;;;16.40;99.90;;;;;;5033806;28;20029;-73
2023/08/20 01:11:59;;;;;;;0.30;0.30;;;16.40;99.90;;;;;;5033871;28;20034;-73
2023/08/20 01:14:24;;;;;;;0.30;0.30;;;16.40;99.90;;;;;;5033807;28;20043;-73
2023/08/20 01:16:50;;;;;;;0.43;0.43;;;16.40;99.90;;;;;;5033745;28;20041;-73
2023/08/20 01:19:21;;;;;;;0.40;0.40;;;16.40;99.90;;;;;;5033535;28;20049;-73
2023/08/20 01:22:08;;;;;;;0.40;0.40;;;16.30;99.90;;;;;;5033773;28;20083;-73
2023/08/20 01:25:04;;;;;;;0.30;0.30;;;16.30;99.90;;;;;;5034253;28;20045;-73
2023/08/20 01:27:46;;;;;;;0.30;0.30;;;16.30;99.90;;;;;;5033798;28;20041;-73
2023/08/20 01:30:12;;;;;;;0.40;0.40;;;16.30;99.90;;;;;;5033560;28;20041;-73
2023/08/20 01:32:41;;;;;;;0.30;0.30;;;16.30;99.90;;;;;;5032253;28;20041;-73
2023/08/20 01:35:12;;;;;;;0.38;0.38;;;16.30;99.90;;;;;;5033461;28;20067;-73
2023/08/20 01:37:37;;;;;;;0.30;0.30;;;16.20;99.90;;;;;;5033812;28;20049;-73
2023/08/20 01:40:03;;;;;;;0.83;0.57;;;16.20;99.90;;;;;;5033233;28;20053;-73
2023/08/20 01:42:29;;;;;;;0.30;0.30;;;16.10;99.90;;;;;;5033430;28;20052;-73
2023/08/20 01:44:55;;;;;;;0.50;0.50;;;16.10;99.90;;;;;;5032845;28;20120;-73
2023/08/20 01:47:20;;;;;;;0.43;0.43;;;16.10;99.90;;;;;;5033337;28;20139;-73
2023/08/20 01:49:46;;;;;;;0.37;0.37;;;16.10;99.90;;;;;;5048688;28;20377;-73
2023/08/20 01:52:12;;;;;;;0.50;0.50;;;16.00;99.90;;;;;;5032386;28;20147;-73
2023/08/20 01:54:37;;;;;;;0.30;0.30;;;16.00;99.90;;;;;;5033271;28;20047;-73
2023/08/20 01:57:03;;;;;;;0.47;0.47;;;16.00;99.90;;;;;;5033510;28;20037;-73
2023/08/20 01:59:29;;;;;;;0.30;0.30;;;16.00;99.90;;;;;;5033220;28;20079;-73
2023/08/20 02:01:54;;;;;;;0.33;0.33;;;16.00;99.90;;;;;;5033664;28;20167;-73
2023/08/20 02:04:20;;;;;;;0.30;0.30;;;16.00;99.90;;;;;;5033625;28;20072;-73
2023/08/20 02:06:46;;;;;;;0.60;0.60;;;16.00;99.90;;;;;;5033185;28;20457;-73
2023/08/20 02:09:11;;;;;;;0.30;0.30;;;16.00;99.90;;;;;;5033073;28;20473;-73
2023/08/20 02:11:37;;;;;;;0.30;0.30;;;16.00;99.90;;;;;;5033304;28;20389;-73
2023/08/20 02:14:03;;;;;;;0.40;0.40;;;16.00;99.90;;;;;;5033048;28;20037;-73
2023/08/20 02:16:28;;;;;;;0.70;0.70;;;16.00;99.90;;;;;;5032789;28;20099;-73
2023/08/20 02:18:54;;;;;;;0.40;0.40;;;15.90;99.90;;;;;;5033558;28;20064;-73
2023/08/20 02:21:20;;;;;;;0.40;0.40;;;15.90;99.90;;;;;;5033468;28;20038;-73
2023/08/20 02:23:45;;;;;;;0.40;0.40;;;15.90;99.90;;;;;;5033279;28;20041;-73
2023/08/20 02:26:11;;;;;;;0.30;0.30;;;15.80;99.90;;;;;;5033353;28;20048;-73
2023/08/20 02:28:37;;;;;;;0.57;0.57;;;15.80;99.90;;;;;;5032952;28;20049;-73
2023/08/20 02:31:06;;;;;;;0.33;0.33;;;15.90;99.90;;;;;;5032863;28;20409;-73
2023/08/20 02:33:31;;;;;;;3.60;0.95;;;15.90;99.90;;;;;;5032684;28;20492;-73
2023/08/20 02:36:03;;;;;;;0.30;0.30;;;15.80;99.90;;;;;;5032841;28;20042;-73
2023/08/20 02:38:29;;;;;;;0.38;0.38;;;15.80;99.90;;;;;;5032881;28;20087;-73
2023/08/20 02:40:55;;;;;;;0.30;0.30;;;15.80;99.90;;;;;;5032820;28;20038;-73
2023/08/20 02:43:21;;;;;;;0.30;0.30;;;15.80;99.90;;;;;;5032845;28;20038;-73
2023/08/20 02:45:46;;;;;;;0.30;0.30;;;15.80;99.90;;;;;;5032774;28;20037;-73
2023/08/20 02:48:13;;;;;;;0.30;0.30;;;15.80;99.90;;;;;;5033189;28;20531;-73
2023/08/20 02:50:39;;;;;;;0.63;0.60;;;15.80;99.90;;;;;;5032586;28;20029;-73
2023/08/20 02:53:05;;;;;;;0.30;0.30;;;15.70;99.90;;;;;;5032793;28;20033;-73
2023/08/20 02:55:31;;;;;;;0.40;0.40;;;15.70;99.90;;;;;;5032695;28;20037;-73
2023/08/20 02:57:58;;;;;;;0.40;0.30;;;15.70;99.90;;;;;;5034719;28;20040;-73
2023/08/20 03:00:23;;;;;;;0.40;0.40;;;15.70;99.90;;;;;;5035847;28;20045;-73
2023/08/20 03:02:49;;;;;;;0.30;0.30;;;15.70;99.90;;;;;;5036391;28;20351;-73
2023/08/20 03:05:14;;;;;;;0.30;0.30;;;15.70;99.90;;;;;;5036007;28;20124;-73
2023/08/20 03:07:40;;;;;;;0.30;0.30;;;15.70;99.90;;;;;;5036105;28;20477;-74
2023/08/20 03:10:06;;;;;;;0.30;0.30;;;15.60;99.90;;;;;;5036004;28;20485;-73
2023/08/20 03:12:32;;;;;;;0.30;0.30;;;15.60;99.90;;;;;;5035962;28;20465;-73
2023/08/20 03:15:00;;;;;;;0.63;0.50;;;15.70;99.90;;;;;;5035826;28;20060;-73
2023/08/20 03:17:26;;;;;;;0.50;0.40;;;15.60;99.90;;;;;;5035583;28;20416;-74
2023/08/20 03:19:59;;;;;;;0.30;0.30;;;15.60;99.90;;;;;;5036294;28;20045;-73
2023/08/20 03:22:26;;;;;;;0.30;0.30;;;15.60;99.90;;;;;;5035691;28;20041;-73
2023/08/20 03:24:52;;;;;;;0.40;0.40;;;15.60;99.90;;;;;;5035775;28;20088;-73
2023/08/20 03:27:18;;;;;;;0.30;0.30;;;15.60;99.90;;;;;;5035658;28;20041;-73
2023/08/20 03:29:44;;;;;;;0.47;0.47;;;15.60;99.90;;;;;;5035502;28;20040;-73
2023/08/20 03:32:10;;;;;;;0.60;0.60;;;15.50;99.90;;;;;;5035631;28;20280;-73
2023/08/20 03:34:36;;;;;;;0.32;0.32;;;15.60;99.90;;;;;;5035432;28;20033;-73
2023/08/20 03:37:04;;;;;;;0.20;0.20;;;15.50;99.90;;;;;;5035440;28;20083;-73
2023/08/20 03:39:31;;;;;;;0.30;0.30;;;15.50;99.90;;;;;;5035444;28;20059;-73
2023/08/20 03:41:57;;;;;;;0.52;0.52;;;15.50;99.90;;;;;;5035324;28;20052;-73
2023/08/20 03:44:23;;;;;;;0.60;0.50;;;15.50;99.90;;;;;;5035385;28;20470;-73
2023/08/20 03:46:48;;;;;;;0.37;0.37;;;15.50;99.90;;;;;;5035240;28;20037;-74
2023/08/20 03:49:14;;;;;;;0.40;0.40;;;15.50;99.90;;;;;;5035204;28;20041;-73
2023/08/20 03:51:40;;;;;;;0.30;0.30;;;15.40;99.90;;;;;;5035295;28;20478;-72
2023/08/20 03:54:06;;;;;;;0.30;0.30;;;15.40;99.90;;;;;;5035188;28;20088;-73
2023/08/20 03:56:32;;;;;;;0.37;0.37;;;15.50;99.90;;;;;;5035163;28;20074;-73
2023/08/20 03:58:57;;;;;;;0.30;0.30;;;15.40;99.90;;;;;;5033915;28;20064;-72
2023/08/20 04:01:23;;;;;;;0.30;0.30;;;15.40;99.90;;;;;;5034808;28;20369;-73
2023/08/20 04:03:49;;;;;;;0.53;0.53;;;15.40;99.90;;;;;;5035017;28;20120;-73
2023/08/20 04:06:14;;;;;;;0.30;0.30;;;15.40;99.90;;;;;;5035254;28;20037;-72
2023/08/20 04:08:40;;;;;;;0.37;0.37;;;15.40;99.90;;;;;;5034543;28;20037;-73
2023/08/20 04:11:07;;;;;;;0.30;0.30;;;15.40;99.90;;;;;;5034620;28;20037;-73
2023/08/20 04:13:32;;;;;;;0.30;0.30;;;15.40;99.90;;;;;;5033251;28;20132;-73
2023/08/20 04:15:58;;;;;;;0.37;0.37;;;15.40;99.90;;;;;;5035270;28;20076;-73
2023/08/20 04:18:24;;;;;;;0.50;0.50;;;15.30;99.90;;;;;;5034517;28;20104;-73
2023/08/20 04:20:53;;;;;;;0.53;0.53;;;15.30;99.90;;;;;;5034602;28;20052;-73
2023/08/20 04:23:22;;;;;;;0.32;0.32;;;15.30;99.90;;;;;;5034571;28;20052;-73
2023/08/20 04:25:47;;;;;;;0.30;0.30;;;15.30;99.90;;;;;;5034263;28;20474;-72
2023/08/20 04:28:13;;;;;;;0.30;0.30;;;15.30;99.90;;;;;;5034234;28;20053;-73
2023/08/20 04:30:39;;;;;;;0.30;0.30;;;15.30;99.90;;;;;;5034372;28;20030;-73
2023/08/20 04:33:04;;;;;;;0.40;0.40;;;15.30;99.90;;;;;;5034488;28;20143;-73
2023/08/20 04:35:30;;;;;;;0.37;0.37;;;15.30;99.90;;;;;;5050035;28;20127;-73
2023/08/20 04:37:56;;;;;;;0.40;0.40;;;15.30;99.90;;;;;;5034592;28;20037;-73
2023/08/20 04:40:22;;;;;;;0.47;0.43;;;15.30;99.90;;;;;;5034337;28;20041;-73
2023/08/20 04:42:48;;;;;;;0.53;0.53;;;15.30;99.90;;;;;;5034109;28;20091;-73
2023/08/20 04:45:14;;;;;;;0.30;0.30;;;15.30;99.90;;;;;;5034353;28;20091;-74
2023/08/20 04:47:40;;;;;;;0.30;0.30;;;15.40;99.90;;;;;;5034548;28;20362;-74
2023/08/20 04:50:08;;;;;;;0.30;0.30;;;15.30;99.90;;;;;;5034077;28;20040;-73
2023/08/20 04:52:35;;;;;;;0.40;0.40;;;15.40;99.90;;;;;;5034081;28;20037;-73
2023/08/20 04:55:03;;;;;;;0.50;0.50;;;15.30;99.90;;;;;;5033990;28;20080;-73
2023/08/20 04:57:29;;;;;;;0.30;0.30;;;15.40;99.90;;;;;;5033889;28;20046;-73
2023/08/20 04:59:55;;;;;;;0.40;0.40;;;15.40;99.90;;;;;;5034551;28;20064;-74
2023/08/20 05:02:21;;;;;;;0.37;0.37;;;15.40;99.90;;;;;;5033845;28;20434;-73
2023/08/20 05:04:46;;;;;;;0.50;0.50;;;15.50;99.90;;;;;;5033921;28;20048;-73
2023/08/20 05:07:12;;;;;;;0.50;0.40;;;15.50;99.90;;;;;;5034110;28;20037;-73
2023/08/20 05:09:37;;;;;;;0.30;0.30;;;15.40;99.90;;;;;;5033726;28;20040;-74
2023/08/20 05:12:03;;;;;;;0.30;0.30;;;15.50;99.90;;;;;;5033802;28;20041;-73
2023/08/20 05:14:30;;;;;;;0.40;0.40;;;15.50;99.90;;;;;;5033753;28;20068;-73
2023/08/20 05:16:56;;;;;;;0.43;0.43;;;15.40;99.90;;;;;;5034107;28;20417;-74
2023/08/20 05:19:22;;;;;;;0.30;0.30;;;15.50;99.90;;;;;;5033056;28;20109;-73
2023/08/20 05:21:47;;;;;;;0.30;0.30;;;15.50;99.90;;;;;;5033466;28;20046;-72
2023/08/20 05:24:13;;;;;;;0.30;0.30;;;15.60;99.90;;;;;;5033581;28;20076;-72
2023/08/20 05:26:39;;;;;;;0.30;0.30;;;15.60;99.90;;;;;;5033401;28;20117;-72
2023/08/20 05:29:04;;;;;;;0.63;0.37;;;15.60;99.90;;;;;;5033376;28;20153;-73
2023/08/20 05:31:30;;;;;;;0.40;0.40;;;15.70;99.90;;;;;;5033685;28;20088;-73
2023/08/20 05:33:56;;;;;;;0.73;0.67;;;15.70;99.90;;;;;;5033421;28;20038;-73
2023/08/20 05:36:22;;;;;;;0.30;0.30;;;15.70;99.90;;;;;;5033911;28;20090;-72
2023/08/20 05:38:48;;;;;;;;;;;15.70;99.90;;;;;;5033956;28;20045;-73
2023/08/20 05:41:14;;;;;;;1.58;0.57;;;15.80;99.90;;;;;;5033116;28;19924;-74
2023/08/20 05:43:39;;;;;;;0.30;0.30;;;15.80;99.90;;;;;;5033088;28;20073;-73
2023/08/20 05:46:05;;;;;;;0.30;0.30;;;15.80;99.90;;;;;;5033671;28;20124;-73
2023/08/20 05:48:31;;;;;;;0.30;0.30;;;15.80;99.90;;;;;;5033119;28;20049;-73
2023/08/20 05:50:56;;;;;;;0.70;0.40;;;15.90;99.90;;;;;;5033339;28;20029;-74
2023/08/20 05:53:22;;;;;;;0.30;0.30;;;15.90;99.90;;;;;;5033340;28;20041;-73
2023/08/20 05:55:49;;;;;;;0.50;0.50;;;15.90;99.90;;;;;;5033217;28;20227;-73
2023/08/20 05:58:14;;;;;;;0.57;0.57;;;16.00;99.90;;;;;;5033659;28;20315;-74
2023/08/20 06:00:40;;;;;;;0.30;0.30;;;16.10;99.90;;;;;;5033258;28;20073;-73
2023/08/20 06:03:07;;;;;;;1.27;0.40;;;16.10;99.90;;;;;;5033639;28;20045;-73
2023/08/20 06:05:33;;;;;;;;;;;16.20;99.90;;;;;;5033606;28;20128;-73
2023/08/20 06:07:58;;;;;;;0.40;0.40;;;16.20;99.90;;;;;;5033168;28;19943;-73
2023/08/20 06:10:24;;;;;;;0.47;0.47;;;16.30;99.90;;;;;;5032784;28;20048;-80
2023/08/20 06:12:50;;;;;;;0.40;0.40;;;16.30;99.90;;;;;;5032801;28;20124;-76
2023/08/20 06:15:15;;;;;;;0.40;0.40;;;16.40;99.90;;;;;;5033266;28;20042;-75
2023/08/20 06:17:41;;;;;;;0.40;0.40;;;16.50;99.90;;;;;;5032808;28;20033;-75
2023/08/20 06:20:08;;;;;;;0.57;0.57;;;16.60;99.90;;;;;;5032920;28;20493;-77
2023/08/20 06:22:34;;;;;;;;;;;16.70;99.90;;;;;;5033327;28;20440;-75
2023/08/20 06:25:00;;;;;;;0.60;0.60;;;16.80;99.90;;;;;;5031694;28;19917;-74
2023/08/20 06:27:25;;;;;;;0.53;0.53;;;16.90;99.90;;;;;;5032617;28;20045;-75
2023/08/20 06:29:51;;;;;;;0.50;0.50;;;17.10;99.90;;;;;;5033062;28;20144;-75
2023/08/20 06:32:17;;;;;;;0.30;0.30;;;17.20;99.90;;;;;;5035586;28;20053;-74
2023/08/20 06:34:42;;;;;;;0.33;0.33;;;17.30;99.90;;;;;;5036842;28;20049;-74
2023/08/20 06:37:08;;;;;;;0.60;0.60;;;17.50;99.90;;;;;;5036588;28;20041;-73
2023/08/20 06:39:33;;;;;;;0.40;0.40;;;17.60;99.90;;;;;;5036555;28;20037;-75
2023/08/20 06:41:59;;;;;;;0.30;0.30;;;17.80;99.90;;;;;;5036457;28;20063;-74
2023/08/20 06:44:25;;;;;;;0.30;0.30;;;18.00;99.90;;;;;;5036308;28;20091;-73
2023/08/20 06:46:50;;;;;;;0.37;0.33;;;18.10;99.90;;;;;;5036562;28;20048;-73
2023/08/20 06:49:16;;;;;;;0.40;0.40;;;18.20;99.90;;;;;;5036472;28;20100;-73
2023/08/20 06:51:41;;;;;;;0.40;0.40;;;18.40;99.90;;;;;;5036224;28;20124;-73
2023/08/20 06:54:07;;;;;;;0.43;0.43;;;18.50;99.90;;;;;;5036485;28;20077;-73
2023/08/20 06:56:33;;;;;;;0.50;0.50;;;18.70;99.90;;;;;;5036259;28;20067;-73
2023/08/20 06:59:00;;;;;;;0.30;0.30;;;18.80;99.90;;;;;;5036273;28;20033;-73
2023/08/20 07:01:25;;;;;;;;;;;19.00;99.90;;;;;;5037164;28;20461;-73
2023/08/20 07:03:51;;;;;;;0.43;0.43;;;19.20;99.90;;;;;;5036167;28;19917;-74
2023/08/20 07:06:18;;;;;;;0.40;0.40;;;19.30;99.90;;;;;;5036276;28;20091;-74
2023/08/20 07:08:44;;;;;;;0.40;0.40;;;19.40;99.90;;;;;;5036107;28;20038;-73
2023/08/20 07:11:09;;;;;;;0.30;0.30;;;19.50;99.90;;;;;;5035906;28;20128;-74
2023/08/20 07:13:35;;;;;;;0.30;0.30;;;19.60;99.90;;;;;;5036042;28;20053;-74
2023/08/20 07:16:02;;;;;;;0.30;0.30;;;19.70;99.90;;;;;;5035931;28;20068;-75
2023/08/20 07:18:28;;;;;;;0.50;0.50;;;19.80;99.90;;;;;;5035816;28;20085;-75
2023/08/20 07:20:54;;;;;;;0.50;0.30;;;19.90;99.90;;;;;;5036232;28;20088;-76
2023/08/20 07:23:20;;;;;;;0.47;0.45;;;20.00;99.90;;;;;;5035736;28;20052;-75
2023/08/20 07:25:46;;;;;;;0.30;0.30;;;20.10;99.90;;;;;;5035731;28;20038;-76
2023/08/20 07:28:12;;;;;;;0.28;0.28;;;20.20;99.90;;;;;;5036336;28;20045;-73
2023/08/20 07:30:38;;;;;;;0.30;0.30;;;20.30;99.90;;;;;;5035661;28;20525;-74
2023/08/20 07:33:04;;;;;;;0.30;0.30;;;20.40;99.90;;;;;;5035357;28;20064;-73
2023/08/20 07:35:29;;;;;;;0.77;0.77;;;20.50;99.90;;;;;;5034994;28;20047;-73
2023/08/20 07:37:55;;;;;;;0.30;0.30;;;20.50;99.90;;;;;;5049841;28;20291;-73
2023/08/20 07:40:21;;;;;;;0.30;0.30;;;20.60;99.90;;;;;;5035401;28;20041;-73
2023/08/20 07:42:46;;;;;;;0.77;0.77;;;20.70;99.90;;;;;;5034599;28;20421;-73
2023/08/20 07:45:13;;;;;;;0.73;0.40;;;20.80;99.90;;;;;;5035791;28;20252;-73
2023/08/20 07:47:39;;;;;;;0.32;0.32;;;20.90;99.90;;;;;;5035427;28;20041;-73
2023/08/20 07:50:05;;;;;;;0.30;0.30;;;20.90;99.90;;;;;;5035178;28;20044;-73
2023/08/20 07:52:34;;;;;;;0.50;0.50;;;21.00;99.90;;;;;;5035548;28;20390;-73
2023/08/20 07:55:00;;;;;;;0.30;0.30;;;21.00;99.90;;;;;;5035150;28;20038;-73
2023/08/20 07:57:26;;;;;;;0.40;0.40;;;21.10;99.90;;;;;;5035177;28;20045;-73
2023/08/20 07:59:52;;;;;;;0.33;0.33;;;21.10;99.90;;;;;;5035659;28;20045;-73
2023/08/20 08:02:18;;;;;;;1.33;0.63;;;21.20;99.90;;;;;;5034885;28;20505;-73
2023/08/20 08:04:44;;;;;;;0.20;0.20;;;21.30;99.90;;;;;;5035073;28;20042;-73
2023/08/20 08:07:12;;;;;;;0.60;0.60;;;21.30;99.90;;;;;;5035134;28;20520;-73
2023/08/20 08:09:38;;;;;;;0.40;0.40;;;21.40;99.90;;;;;;5034559;28;20049;-72
2023/08/20 08:12:04;;;;;;;0.20;0.20;;;21.50;99.90;;;;;;5035063;28;20033;-73
2023/08/20 08:14:30;;;;;;;0.20;0.20;;;21.60;99.90;;;;;;5034886;28;20187;-73
2023/08/20 08:16:56;;;;;;;0.30;0.30;;;21.60;99.90;;;;;;5034687;28;20771;-73
2023/08/20 08:19:22;;;;;;;0.20;0.20;;;21.70;99.90;;;;;;5034439;28;20052;-74
2023/08/20 08:21:47;;;;;;;0.30;0.30;;;21.80;99.90;;;;;;5034688;28;20037;-73
2023/08/20 08:24:14;;;;;;;0.20;0.20;;;21.90;99.90;;;;;;5034777;28;20120;-73
2023/08/20 08:26:40;;;;;;;;;;;21.90;99.90;;;;;;5035025;28;20051;-74
2023/08/20 08:29:07;;;;;;;0.20;0.20;;;22.00;99.90;;;;;;5034598;28;19917;-73
2023/08/20 08:31:33;;;;;;;0.30;0.30;;;22.10;99.90;;;;;;5034578;28;20056;-73
2023/08/20 08:34:00;;;;;;;0.63;0.45;;;22.20;99.90;;;;;;5034437;28;20081;-73
2023/08/20 08:36:25;;;;;;;0.30;0.30;;;22.30;99.90;;;;;;5034512;28;20037;-73
2023/08/20 08:38:52;;;;;;;0.35;0.35;;;22.30;99.90;;;;;;5034565;28;20034;-73
2023/08/20 08:41:20;;;;;;;;;;;22.40;99.90;;;;;;5034621;28;20496;-74
2023/08/20 08:43:47;;;;;;;0.20;0.20;;;22.40;99.90;;;;;;5034377;28;19917;-74
2023/08/20 08:46:14;;;;;;;0.20;0.20;;;22.50;99.90;;;;;;5034362;28;20137;-73
2023/08/20 08:48:44;;;;;;;0.68;0.68;;;22.60;99.90;;;;;;5032999;28;20045;-73
2023/08/20 08:51:09;;;;;;;0.30;0.30;;;22.70;99.90;;;;;;5033016;28;20037;-74
2023/08/20 08:53:35;;;;;;;0.20;0.20;;;22.80;99.90;;;;;;5033826;28;20488;-73
2023/08/20 08:56:05;;;;;;;2.23;0.87;;;22.90;99.90;;;;;;5034898;28;20037;-73
2023/08/20 08:58:32;;;;;;;0.30;0.30;;;22.90;99.90;;;;;;5034037;28;20276;-73
2023/08/20 09:00:58;;;;;;;0.20;0.20;;;23.00;99.90;;;;;;5034312;28;20358;-73
2023/08/20 09:03:24;;;;;;;0.30;0.30;;;23.00;99.90;;;;;;5034208;28;20135;-73
2023/08/20 09:06:00;;;;;;;0.47;0.47;;;23.10;99.90;;;;;;5034007;28;20115;-73
2023/08/20 09:08:30;;;;;;;0.57;0.57;;;23.20;99.90;;;;;;5033876;28;20122;-74
2023/08/20 09:10:58;;;;;;;0.30;0.30;;;23.30;99.90;;;;;;5033841;28;20481;-73
2023/08/20 09:13:26;;;;;;;0.75;0.75;;;23.30;99.90;;;;;;5033790;28;20041;-74
2023/08/20 09:15:54;;;;;;;0.22;0.22;;;23.40;99.90;;;;;;5033789;28;20042;-74
2023/08/20 09:18:20;;;;;;;5.15;0.35;;;23.40;99.90;;;;;;5033478;28;20425;-74
2023/08/20 09:20:51;;;;;;;0.30;0.30;;;23.50;99.90;;;;;;5033652;28;20038;-74
2023/08/20 09:23:17;;;;;;;0.20;0.20;;;23.60;99.90;;;;;;5033461;28;20410;-74
2023/08/20 09:25:43;;;;;;;0.30;0.30;;;23.70;99.90;;;;;;5033371;28;20126;-74
2023/08/20 09:28:09;;;;;;;0.20;0.20;;;23.70;99.90;;;;;;5033669;28;20044;-74
2023/08/20 09:30:35;;;;;;;0.30;0.30;;;23.70;99.90;;;;;;5033607;28;20033;-74
2023/08/20 09:33:16;;;;;;;0.32;0.30;;;23.90;99.90;;;;;;5033622;28;20120;-74
2023/08/20 09:35:59;;;;;;;0.30;0.30;;;23.90;99.90;;;;;;5033297;28;20503;-74
2023/08/20 09:38:25;;;;;;;0.22;0.22;;;24.00;99.90;;;;;;5032566;28;20423;-74
2023/08/20 09:40:53;;;;;;;0.27;0.27;;;24.10;99.90;;;;;;5033084;28;20080;-73
2023/08/20 09:43:20;;;;;;;0.20;0.20;;;24.10;99.90;;;;;;5032003;28;20060;-77
2023/08/20 09:45:47;;;;;;;0.20;0.20;;;24.10;99.90;;;;;;5033035;28;20060;-79
2023/08/20 09:48:19;;;;;;;0.20;0.20;;;24.10;99.90;;;;;;5033388;28;20056;-74
2023/08/20 09:50:47;;;;;;;0.20;0.20;;;24.20;99.90;;;;;;5032918;28;20060;-74
2023/08/20 09:53:27;;;;;;;0.30;0.30;;;24.30;99.90;;;;;;5033249;28;20041;-74
2023/08/20 09:55:55;;;;;;;0.30;0.30;;;24.30;99.90;;;;;;5033296;28;20042;-73
2023/08/20 09:58:25;;;;;;;0.20;0.20;;;24.40;99.90;;;;;;5033186;28;20467;-73
2023/08/20 10:00:51;;;;;;;0.50;0.50;;;24.60;99.90;;;;;;5033683;28;20041;-73
2023/08/20 10:03:18;;;;;;;;;;;24.60;99.90;;;;;;5033606;28;20037;-74
2023/08/20 10:05:46;;;;;;;0.30;0.30;;;24.70;99.90;;;;;;5033513;28;20369;-73
2023/08/20 10:08:12;;;;;;;0.20;0.20;;;24.70;99.90;;;;;;5037227;28;20048;-73
2023/08/20 10:10:38;;;;;;;0.20;0.20;;;24.80;99.90;;;;;;5037190;28;20389;-76
2023/08/20 10:13:04;;;;;;;0.25;0.25;;;24.80;99.90;;;;;;5037258;28;20043;-74
2023/08/20 10:15:31;;;;;;;0.20;0.20;;;25.00;99.90;;;;;;5037209;28;20049;-73
2023/08/20 10:17:57;;;;;;;0.20;0.20;;;25.00;99.90;;;;;;5036946;28;20057;-73
2023/08/20 10:20:23;;;;;;;0.20;0.20;;;24.90;99.90;;;;;;5037274;28;20053;-74
2023/08/20 10:22:51;;;;;;;0.20;0.20;;;25.00;99.90;;;;;;5037025;28;20466;-75
2023/08/20 10:25:25;;;;;;;0.30;0.30;;;25.00;99.90;;;;;;5036928;28;20048;-76
2023/08/20 10:27:52;;;;;;;0.20;0.20;;;25.10;99.90;;;;;;5036549;28;20396;-74
2023/08/20 10:30:27;;;;;;;0.20;0.20;;;25.10;99.90;;;;;;5036721;28;20041;-75
2023/08/20 10:32:54;;;;;;;0.20;0.20;;;25.10;99.90;;;;;;5036922;28;20075;-75
2023/08/20 10:35:25;;;;;;;0.30;0.30;;;25.10;99.90;;;;;;5036622;28;20064;-74
2023/08/20 10:38:11;;;;;;;0.20;0.20;;;25.10;99.90;;;;;;5036559;28;20190;-74
2023/08/20 10:40:58;;;;;;;0.20;0.20;;;25.10;99.90;;;;;;5036772;28;20045;-76
2023/08/20 10:43:33;;;;;;;0.30;0.30;;;25.30;99.90;;;;;;5036687;28;20099;-76
2023/08/20 10:46:18;;;;;;;0.20;0.20;;;25.30;99.90;;;;;;5036732;28;20076;-77
2023/08/20 10:48:49;;;;;;;0.20;0.20;;;25.30;99.90;;;;;;5036540;28;20056;-75
2023/08/20 10:51:23;;;;;;;0.73;0.73;;;25.30;99.90;;;;;;5036467;28;20044;-76
2023/08/20 10:54:01;;;;;;;0.20;0.20;;;25.40;99.90;;;;;;5036625;28;20041;-74
2023/08/20 10:56:43;;;;;;;0.20;0.20;;;25.40;99.90;;;;;;5036086;28;20041;-75
2023/08/20 10:59:16;;;;;;;0.22;0.22;;;25.60;99.90;;;;;;5036276;28;20388;-73
2023/08/20 11:01:52;;;;;;;0.20;0.20;;;25.60;99.90;;;;;;5036262;28;20072;-74
2023/08/20 11:04:20;;;;;;;0.40;0.40;;;25.60;99.90;;;;;;5036246;28;20041;-75
2023/08/20 11:06:49;;;;;;;0.20;0.20;;;25.50;99.90;;;;;;5035822;28;20531;-76
2023/08/20 11:09:15;;;;;;;0.20;0.20;;;25.60;99.90;;;;;;5036030;28;20099;-74
2023/08/20 11:11:41;;;;;;;0.30;0.30;;;25.70;99.90;;;;;;5035805;28;20045;-75
2023/08/20 11:14:13;;;;;;;0.20;0.20;;;25.70;99.90;;;;;;5036314;28;20096;-79
2023/08/20 11:16:39;;;;;;;0.20;0.20;;;25.70;99.90;;;;;;5034648;28;20457;-77
2023/08/20 11:19:08;;;;;;;0.20;0.20;;;25.80;99.90;;;;;;5034773;28;20053;-80
2023/08/20 11:21:35;;;;;;;0.63;0.63;;;25.80;99.90;;;;;;5036016;28;20100;-77
2023/08/20 11:24:01;;;;;;;0.20;0.20;;;25.90;99.90;;;;;;5035950;28;20045;-80
2023/08/20 11:26:27;;;;;;;0.20;0.20;;;25.90;99.90;;;;;;5035978;28;20037;-78
2023/08/20 11:28:53;;;;;;;0.20;0.20;;;25.90;99.90;;;;;;5036207;28;20517;-78
2023/08/20 11:31:19;;;;;;;0.20;0.20;;;25.90;99.90;;;;;;5036062;28;20045;-78
2023/08/20 11:33:45;;;;;;;0.30;0.30;;;26.00;99.90;;;;;;5035705;28;20037;-79
2023/08/20 11:36:11;;;;;;;0.20;0.20;;;26.00;99.90;;;;;;5035428;28;20053;-78
2023/08/20 11:38:37;;;;;;;0.20;0.20;;;26.10;99.90;;;;;;5035462;28;20497;-79
2023/08/20 11:41:03;;;;;;;0.20;0.20;;;26.10;99.90;;;;;;5035499;28;20124;-74
2023/08/20 11:43:29;;;;;;;0.20;0.20;;;26.10;99.90;;;;;;5036024;28;20095;-75
2023/08/20 11:45:55;;;;;;;0.20;0.20;;;26.10;99.90;;;;;;5035510;28;20124;-75
2023/08/20 11:48:22;;;;;;;0.20;0.20;;;26.20;99.90;;;;;;5035366;28;20126;-76
2023/08/20 11:50:49;;;;;;;0.20;0.20;;;26.20;99.90;;;;;;5035209;28;20452;-77
2023/08/20 11:53:15;;;;;;;0.20;0.20;;;26.20;99.90;;;;;;5050601;28;20037;-77
2023/08/20 11:55:41;;;;;;;0.20;0.20;;;26.30;99.90;;;;;;5035258;28;20049;-77
2023/08/20 11:58:12;;;;;;;0.20;0.20;;;26.30;99.90;;;;;;5035504;28;20037;-77
2023/08/20 12:00:38;;;;;;;0.20;0.20;;;26.30;99.90;;;;;;5035174;28;20033;-77
2023/08/20 12:03:05;;;;;;;0.30;0.30;;;26.30;99.90;;;;;;5035231;28;20343;-78
2023/08/20 12:05:31;;;;;;;0.30;0.30;;;26.30;99.90;;;;;;5035032;28;20049;-78
2023/08/20 12:08:01;;;;;;;0.20;0.20;;;26.30;99.90;;;;;;5034910;28;20044;-77
2023/08/20 12:10:29;;;;;;;0.20;0.20;;;26.40;99.90;;;;;;5050445;28;20034;-77
2023/08/20 12:12:56;;;;;;;0.20;0.20;;;26.40;99.90;;;;;;5035003;28;20041;-77
2023/08/20 12:15:23;;;;;;;0.17;0.17;;;26.50;99.90;;;;;;5034872;28;20063;-78
2023/08/20 12:17:55;;;;;;;0.20;0.20;;;26.50;99.90;;;;;;5034597;28;20060;-78
2023/08/20 12:20:22;;;;;;;0.20;0.20;;;26.60;99.90;;;;;;5034931;28;20084;-77
2023/08/20 12:22:47;;;;;;;0.20;0.20;;;26.70;99.90;;;;;;5034799;28;20041;-77
2023/08/20 12:25:13;;;;;;;0.20;0.20;;;26.80;99.90;;;;;;5034511;28;20056;-81
2023/08/20 12:27:38;;;;;;;0.20;0.20;;;26.80;99.90;;;;;;5033782;28;20084;-80
2023/08/20 12:30:04;;;;;;;0.20;0.20;;;26.90;99.90;;;;;;5034235;28;20084;-81
2023/08/20 12:32:30;;;;;;;0.20;0.20;;;27.00;99.90;;;;;;5034417;28;20134;-81
2023/08/20 12:34:56;;;;;;;0.30;0.30;;;27.10;99.90;;;;;;5017115;28;20478;-73
2023/08/20 12:37:21;;;;;;;0.20;0.20;;;27.20;99.90;;;;;;5034458;28;20080;-73
2023/08/20 12:39:47;;;;;;;0.27;0.27;;;27.10;99.90;;;;;;5034789;28;20272;-76
2023/08/20 12:42:13;;;;;;;0.20;0.20;;;27.10;99.90;;;;;;5035104;28;20057;-74
2023/08/20 12:44:38;;;;;;;0.20;0.20;;;27.20;99.90;;;;;;5034567;28;20473;-76
2023/08/20 12:47:04;;;;;;;0.20;0.20;;;27.30;99.90;;;;;;5033311;28;20069;-74
2023/08/20 12:49:30;;;;;;;0.20;0.20;;;27.20;99.90;;;;;;5034368;28;20041;-72